sensor_id;sensor_type;location;lat;lon;timestamp;P1;durP1;ratioP1;P2;durP2;ratioP2
41817;SDS011;27493;51.730;5.294;2023-02-15T00:01:15;39.47;;;23.23;;
41817;SDS011;27493;51.730;5.294;2023-02-15T00:03:40;39.37;;;22.90;;
41817;SDS011;27493;51.730;5.294;2023-02-15T00:06:06;41.17;;;23.70;;
41817;SDS011;27493;51.730;5.294;2023-02-15T00:08:31;44.47;;;24.30;;
41817;SDS011;27493;51.730;5.294;2023-02-15T00:11:06;41.57;;;24.63;;
41817;SDS011;27493;51.730;5.294;2023-02-15T00:13:31;44.67;;;24.97;;
41817;SDS011;27493;51.730;5.294;2023-02-15T00:16:04;43.60;;;24.87;;
41817;SDS011;27493;51.730;5.294;2023-02-15T00:18:30;43.03;;;24.40;;
41817;SDS011;27493;51.730;5.294;2023-02-15T00:20:55;44.93;;;25.33;;
41817;SDS011;27493;51.730;5.294;2023-02-15T00:23:20;42.30;;;24.57;;
41817;SDS011;27493;51.730;5.294;2023-02-15T00:25:46;42.20;;;24.80;;
41817;SDS011;27493;51.730;5.294;2023-02-15T00:28:11;39.63;;;23.23;;
41817;SDS011;27493;51.730;5.294;2023-02-15T00:30:36;41.73;;;24.00;;
41817;SDS011;27493;51.730;5.294;2023-02-15T00:33:01;42.43;;;24.53;;
41817;SDS011;27493;51.730;5.294;2023-02-15T00:35:26;40.00;;;23.30;;
41817;SDS011;27493;51.730;5.294;2023-02-15T00:37:52;42.43;;;24.27;;
41817;SDS011;27493;51.730;5.294;2023-02-15T00:40:17;46.47;;;24.33;;
41817;SDS011;27493;51.730;5.294;2023-02-15T00:42:42;45.00;;;24.13;;
41817;SDS011;27493;51.730;5.294;2023-02-15T00:45:08;42.50;;;24.57;;
41817;SDS011;27493;51.730;5.294;2023-02-15T00:47:33;41.73;;;24.30;;
41817;SDS011;27493;51.730;5.294;2023-02-15T00:49:58;39.43;;;23.23;;
41817;SDS011;27493;51.730;5.294;2023-02-15T00:52:23;42.23;;;23.60;;
41817;SDS011;27493;51.730;5.294;2023-02-15T00:54:48;48.20;;;24.47;;
41817;SDS011;27493;51.730;5.294;2023-02-15T00:57:14;43.40;;;24.40;;
41817;SDS011;27493;51.730;5.294;2023-02-15T00:59:39;41.00;;;24.10;;
41817;SDS011;27493;51.730;5.294;2023-02-15T01:02:04;41.13;;;23.03;;
41817;SDS011;27493;51.730;5.294;2023-02-15T01:04:29;44.70;;;23.90;;
41817;SDS011;27493;51.730;5.294;2023-02-15T01:06:54;39.73;;;22.33;;
41817;SDS011;27493;51.730;5.294;2023-02-15T01:09:19;37.63;;;22.57;;
41817;SDS011;27493;51.730;5.294;2023-02-15T01:11:45;42.50;;;24.23;;
41817;SDS011;27493;51.730;5.294;2023-02-15T01:14:10;42.37;;;23.03;;
41817;SDS011;27493;51.730;5.294;2023-02-15T01:16:35;40.50;;;22.40;;
41817;SDS011;27493;51.730;5.294;2023-02-15T01:19:01;40.97;;;23.30;;
41817;SDS011;27493;51.730;5.294;2023-02-15T01:21:27;39.23;;;22.87;;
41817;SDS011;27493;51.730;5.294;2023-02-15T01:23:52;38.77;;;22.70;;
41817;SDS011;27493;51.730;5.294;2023-02-15T01:26:18;36.73;;;22.27;;
41817;SDS011;27493;51.730;5.294;2023-02-15T01:28:43;43.27;;;22.43;;
41817;SDS011;27493;51.730;5.294;2023-02-15T01:31:09;40.23;;;22.07;;
41817;SDS011;27493;51.730;5.294;2023-02-15T01:33:35;38.07;;;22.20;;
41817;SDS011;27493;51.730;5.294;2023-02-15T01:36:01;41.43;;;22.67;;
41817;SDS011;27493;51.730;5.294;2023-02-15T01:38:26;39.33;;;22.40;;
41817;SDS011;27493;51.730;5.294;2023-02-15T01:40:51;38.60;;;21.93;;
41817;SDS011;27493;51.730;5.294;2023-02-15T01:43:17;42.83;;;23.97;;
41817;SDS011;27493;51.730;5.294;2023-02-15T01:45:43;35.67;;;21.33;;
41817;SDS011;27493;51.730;5.294;2023-02-15T01:48:19;40.93;;;22.27;;
41817;SDS011;27493;51.730;5.294;2023-02-15T01:50:52;37.83;;;22.47;;
41817;SDS011;27493;51.730;5.294;2023-02-15T01:53:23;41.27;;;22.03;;
41817;SDS011;27493;51.730;5.294;2023-02-15T01:55:54;43.80;;;24.30;;
41817;SDS011;27493;51.730;5.294;2023-02-15T01:58:21;37.63;;;21.63;;
41817;SDS011;27493;51.730;5.294;2023-02-15T02:00:47;39.50;;;22.17;;
41817;SDS011;27493;51.730;5.294;2023-02-15T02:03:12;40.30;;;22.93;;
41817;SDS011;27493;51.730;5.294;2023-02-15T02:05:37;39.07;;;21.67;;
41817;SDS011;27493;51.730;5.294;2023-02-15T02:08:03;40.40;;;22.67;;
41817;SDS011;27493;51.730;5.294;2023-02-15T02:10:28;37.90;;;21.67;;
41817;SDS011;27493;51.730;5.294;2023-02-15T02:12:54;39.40;;;21.60;;
41817;SDS011;27493;51.730;5.294;2023-02-15T02:15:24;41.67;;;22.37;;
41817;SDS011;27493;51.730;5.294;2023-02-15T02:20:24;38.03;;;21.13;;
41817;SDS011;27493;51.730;5.294;2023-02-15T02:36:21;35.93;;;20.37;;
41817;SDS011;27493;51.730;5.294;2023-02-15T02:41:24;39.70;;;21.20;;
41817;SDS011;27493;51.730;5.294;2023-02-15T02:46:31;36.60;;;21.63;;
41817;SDS011;27493;51.730;5.294;2023-02-15T02:48:57;40.07;;;20.90;;
41817;SDS011;27493;51.730;5.294;2023-02-15T02:51:23;37.97;;;20.23;;
41817;SDS011;27493;51.730;5.294;2023-02-15T02:53:53;39.70;;;20.07;;
41817;SDS011;27493;51.730;5.294;2023-02-15T02:56:25;41.30;;;21.73;;
41817;SDS011;27493;51.730;5.294;2023-02-15T02:59:26;39.37;;;20.50;;
41817;SDS011;27493;51.730;5.294;2023-02-15T03:01:45;39.33;;;20.20;;
41817;SDS011;27493;51.730;5.294;2023-02-15T03:04:16;39.73;;;21.00;;
41817;SDS011;27493;51.730;5.294;2023-02-15T03:06:47;34.93;;;20.10;;
41817;SDS011;27493;51.730;5.294;2023-02-15T03:09:15;37.87;;;21.47;;
41817;SDS011;27493;51.730;5.294;2023-02-15T03:11:43;45.27;;;23.23;;
41817;SDS011;27493;51.730;5.294;2023-02-15T03:14:09;41.63;;;21.43;;
41817;SDS011;27493;51.730;5.294;2023-02-15T03:16:35;43.67;;;23.07;;
41817;SDS011;27493;51.730;5.294;2023-02-15T03:21:33;43.83;;;22.60;;
41817;SDS011;27493;51.730;5.294;2023-02-15T03:24:01;37.27;;;20.90;;
41817;SDS011;27493;51.730;5.294;2023-02-15T03:26:29;36.53;;;22.17;;
41817;SDS011;27493;51.730;5.294;2023-02-15T03:28:55;39.70;;;22.60;;
41817;SDS011;27493;51.730;5.294;2023-02-15T03:31:21;46.87;;;23.33;;
41817;SDS011;27493;51.730;5.294;2023-02-15T03:33:50;43.13;;;23.07;;
41817;SDS011;27493;51.730;5.294;2023-02-15T03:36:24;43.57;;;22.83;;
41817;SDS011;27493;51.730;5.294;2023-02-15T03:41:24;48.27;;;22.67;;
41817;SDS011;27493;51.730;5.294;2023-02-15T03:43:52;42.40;;;22.63;;
41817;SDS011;27493;51.730;5.294;2023-02-15T03:46:32;45.00;;;23.90;;
41817;SDS011;27493;51.730;5.294;2023-02-15T03:49:07;46.73;;;23.30;;
41817;SDS011;27493;51.730;5.294;2023-02-15T03:51:34;43.70;;;22.57;;
41817;SDS011;27493;51.730;5.294;2023-02-15T03:54:02;42.60;;;22.90;;
41817;SDS011;27493;51.730;5.294;2023-02-15T03:56:28;39.83;;;21.63;;
41817;SDS011;27493;51.730;5.294;2023-02-15T03:58:53;41.40;;;22.13;;
41817;SDS011;27493;51.730;5.294;2023-02-15T04:01:38;37.43;;;21.33;;
41817;SDS011;27493;51.730;5.294;2023-02-15T04:04:24;45.13;;;21.30;;
41817;SDS011;27493;51.730;5.294;2023-02-15T04:06:50;38.57;;;21.37;;
41817;SDS011;27493;51.730;5.294;2023-02-15T04:09:15;42.87;;;22.07;;
41817;SDS011;27493;51.730;5.294;2023-02-15T04:11:59;40.73;;;21.50;;
41817;SDS011;27493;51.730;5.294;2023-02-15T04:14:24;38.77;;;19.70;;
41817;SDS011;27493;51.730;5.294;2023-02-15T04:17:08;37.43;;;21.30;;
41817;SDS011;27493;51.730;5.294;2023-02-15T04:19:34;39.07;;;21.60;;
41817;SDS011;27493;51.730;5.294;2023-02-15T04:22:17;47.63;;;22.77;;
41817;SDS011;27493;51.730;5.294;2023-02-15T04:25:01;39.47;;;20.70;;
41817;SDS011;27493;51.730;5.294;2023-02-15T04:27:39;39.57;;;21.07;;
41817;SDS011;27493;51.730;5.294;2023-02-15T04:30:05;48.30;;;22.27;;
41817;SDS011;27493;51.730;5.294;2023-02-15T04:32:31;41.10;;;21.27;;
41817;SDS011;27493;51.730;5.294;2023-02-15T04:34:56;39.33;;;20.30;;
41817;SDS011;27493;51.730;5.294;2023-02-15T04:37:21;40.90;;;20.67;;
41817;SDS011;27493;51.730;5.294;2023-02-15T04:39:47;40.87;;;22.00;;
41817;SDS011;27493;51.730;5.294;2023-02-15T04:42:12;41.90;;;20.40;;
41817;SDS011;27493;51.730;5.294;2023-02-15T04:44:37;38.57;;;20.93;;
41817;SDS011;27493;51.730;5.294;2023-02-15T04:47:02;39.80;;;21.57;;
41817;SDS011;27493;51.730;5.294;2023-02-15T04:49:27;41.07;;;20.87;;
41817;SDS011;27493;51.730;5.294;2023-02-15T04:51:52;45.23;;;21.27;;
41817;SDS011;27493;51.730;5.294;2023-02-15T04:54:18;41.07;;;21.00;;
41817;SDS011;27493;51.730;5.294;2023-02-15T04:56:43;39.23;;;21.13;;
41817;SDS011;27493;51.730;5.294;2023-02-15T04:59:11;41.23;;;21.43;;
41817;SDS011;27493;51.730;5.294;2023-02-15T05:01:37;46.30;;;22.80;;
41817;SDS011;27493;51.730;5.294;2023-02-15T05:04:02;37.20;;;21.33;;
41817;SDS011;27493;51.730;5.294;2023-02-15T05:06:27;38.77;;;20.33;;
41817;SDS011;27493;51.730;5.294;2023-02-15T05:08:53;42.80;;;22.50;;
41817;SDS011;27493;51.730;5.294;2023-02-15T05:11:18;39.90;;;21.60;;
41817;SDS011;27493;51.730;5.294;2023-02-15T05:13:43;39.70;;;20.27;;
41817;SDS011;27493;51.730;5.294;2023-02-15T05:16:08;39.60;;;19.57;;
41817;SDS011;27493;51.730;5.294;2023-02-15T05:18:34;35.97;;;20.23;;
41817;SDS011;27493;51.730;5.294;2023-02-15T05:20:59;40.37;;;21.07;;
41817;SDS011;27493;51.730;5.294;2023-02-15T05:23:24;43.70;;;21.97;;
41817;SDS011;27493;51.730;5.294;2023-02-15T05:25:49;38.77;;;21.00;;
41817;SDS011;27493;51.730;5.294;2023-02-15T05:28:34;37.23;;;20.97;;
41817;SDS011;27493;51.730;5.294;2023-02-15T05:33:25;42.83;;;20.47;;
41817;SDS011;27493;51.730;5.294;2023-02-15T05:35:50;41.53;;;21.93;;
41817;SDS011;27493;51.730;5.294;2023-02-15T05:38:16;38.73;;;21.43;;
41817;SDS011;27493;51.730;5.294;2023-02-15T05:40:41;36.80;;;21.53;;
41817;SDS011;27493;51.730;5.294;2023-02-15T05:43:06;38.47;;;21.20;;
41817;SDS011;27493;51.730;5.294;2023-02-15T05:45:31;41.37;;;20.93;;
41817;SDS011;27493;51.730;5.294;2023-02-15T05:47:56;41.03;;;22.13;;
41817;SDS011;27493;51.730;5.294;2023-02-15T05:50:23;40.87;;;21.17;;
41817;SDS011;27493;51.730;5.294;2023-02-15T05:52:48;42.17;;;21.87;;
41817;SDS011;27493;51.730;5.294;2023-02-15T05:55:13;41.50;;;21.37;;
41817;SDS011;27493;51.730;5.294;2023-02-15T05:57:38;37.77;;;20.70;;
41817;SDS011;27493;51.730;5.294;2023-02-15T06:00:04;38.73;;;21.07;;
41817;SDS011;27493;51.730;5.294;2023-02-15T06:02:33;38.40;;;20.87;;
41817;SDS011;27493;51.730;5.294;2023-02-15T06:04:58;39.60;;;21.33;;
41817;SDS011;27493;51.730;5.294;2023-02-15T06:07:23;37.83;;;20.47;;
41817;SDS011;27493;51.730;5.294;2023-02-15T06:09:49;38.67;;;20.83;;
41817;SDS011;27493;51.730;5.294;2023-02-15T06:12:14;38.80;;;21.60;;
41817;SDS011;27493;51.730;5.294;2023-02-15T06:14:39;44.23;;;22.37;;
41817;SDS011;27493;51.730;5.294;2023-02-15T06:17:05;39.17;;;21.53;;
41817;SDS011;27493;51.730;5.294;2023-02-15T06:19:30;41.07;;;21.00;;
41817;SDS011;27493;51.730;5.294;2023-02-15T06:21:55;45.33;;;22.50;;
41817;SDS011;27493;51.730;5.294;2023-02-15T06:24:20;39.50;;;20.30;;
41817;SDS011;27493;51.730;5.294;2023-02-15T06:26:45;44.57;;;22.13;;
41817;SDS011;27493;51.730;5.294;2023-02-15T06:29:11;41.83;;;21.97;;
41817;SDS011;27493;51.730;5.294;2023-02-15T06:31:36;39.80;;;20.90;;
41817;SDS011;27493;51.730;5.294;2023-02-15T06:34:01;43.20;;;20.60;;
41817;SDS011;27493;51.730;5.294;2023-02-15T06:36:29;41.27;;;20.70;;
41817;SDS011;27493;51.730;5.294;2023-02-15T06:38:55;38.30;;;19.73;;
41817;SDS011;27493;51.730;5.294;2023-02-15T06:41:20;39.60;;;20.97;;
41817;SDS011;27493;51.730;5.294;2023-02-15T06:43:46;48.87;;;21.23;;
41817;SDS011;27493;51.730;5.294;2023-02-15T06:46:11;44.80;;;20.83;;
41817;SDS011;27493;51.730;5.294;2023-02-15T06:48:36;39.63;;;21.53;;
41817;SDS011;27493;51.730;5.294;2023-02-15T06:51:01;41.20;;;20.93;;
41817;SDS011;27493;51.730;5.294;2023-02-15T06:53:26;40.93;;;21.43;;
41817;SDS011;27493;51.730;5.294;2023-02-15T06:55:51;43.67;;;22.07;;
41817;SDS011;27493;51.730;5.294;2023-02-15T06:58:17;44.60;;;22.43;;
41817;SDS011;27493;51.730;5.294;2023-02-15T07:00:42;42.13;;;21.23;;
41817;SDS011;27493;51.730;5.294;2023-02-15T07:03:07;45.30;;;21.73;;
41817;SDS011;27493;51.730;5.294;2023-02-15T07:05:33;40.77;;;22.50;;
41817;SDS011;27493;51.730;5.294;2023-02-15T07:07:59;45.67;;;22.33;;
41817;SDS011;27493;51.730;5.294;2023-02-15T07:10:24;47.53;;;22.73;;
41817;SDS011;27493;51.730;5.294;2023-02-15T07:12:50;44.77;;;22.13;;
41817;SDS011;27493;51.730;5.294;2023-02-15T07:15:16;41.53;;;22.40;;
41817;SDS011;27493;51.730;5.294;2023-02-15T07:17:43;42.63;;;22.20;;
41817;SDS011;27493;51.730;5.294;2023-02-15T07:20:10;40.60;;;21.67;;
41817;SDS011;27493;51.730;5.294;2023-02-15T07:22:36;48.10;;;22.07;;
41817;SDS011;27493;51.730;5.294;2023-02-15T07:25:02;44.30;;;22.40;;
41817;SDS011;27493;51.730;5.294;2023-02-15T07:27:28;41.33;;;21.23;;
41817;SDS011;27493;51.730;5.294;2023-02-15T07:29:54;40.77;;;21.90;;
41817;SDS011;27493;51.730;5.294;2023-02-15T07:32:19;45.77;;;22.50;;
41817;SDS011;27493;51.730;5.294;2023-02-15T07:34:44;41.53;;;22.37;;
41817;SDS011;27493;51.730;5.294;2023-02-15T07:37:09;42.83;;;21.60;;
41817;SDS011;27493;51.730;5.294;2023-02-15T07:39:34;41.43;;;23.67;;
41817;SDS011;27493;51.730;5.294;2023-02-15T07:42:00;45.27;;;23.80;;
41817;SDS011;27493;51.730;5.294;2023-02-15T07:44:25;45.43;;;22.63;;
41817;SDS011;27493;51.730;5.294;2023-02-15T07:46:50;48.43;;;23.47;;
41817;SDS011;27493;51.730;5.294;2023-02-15T07:49:15;42.67;;;23.03;;
41817;SDS011;27493;51.730;5.294;2023-02-15T07:51:40;43.90;;;22.97;;
41817;SDS011;27493;51.730;5.294;2023-02-15T07:54:06;39.13;;;22.87;;
41817;SDS011;27493;51.730;5.294;2023-02-15T07:56:31;51.13;;;24.43;;
41817;SDS011;27493;51.730;5.294;2023-02-15T07:58:57;41.13;;;22.13;;
41817;SDS011;27493;51.730;5.294;2023-02-15T08:01:25;46.83;;;23.83;;
41817;SDS011;27493;51.730;5.294;2023-02-15T08:03:51;44.50;;;23.60;;
41817;SDS011;27493;51.730;5.294;2023-02-15T08:06:16;46.07;;;24.53;;
41817;SDS011;27493;51.730;5.294;2023-02-15T08:08:41;46.43;;;24.50;;
41817;SDS011;27493;51.730;5.294;2023-02-15T08:13:54;46.47;;;23.73;;
41817;SDS011;27493;51.730;5.294;2023-02-15T08:16:26;40.07;;;23.07;;
41817;SDS011;27493;51.730;5.294;2023-02-15T08:18:52;48.47;;;24.40;;
41817;SDS011;27493;51.730;5.294;2023-02-15T08:21:18;46.93;;;24.37;;
41817;SDS011;27493;51.730;5.294;2023-02-15T08:23:43;42.87;;;24.07;;
41817;SDS011;27493;51.730;5.294;2023-02-15T08:26:09;52.10;;;26.60;;
41817;SDS011;27493;51.730;5.294;2023-02-15T08:28:34;51.97;;;26.80;;
41817;SDS011;27493;51.730;5.294;2023-02-15T08:31:06;50.77;;;25.67;;
41817;SDS011;27493;51.730;5.294;2023-02-15T08:33:31;52.53;;;25.73;;
41817;SDS011;27493;51.730;5.294;2023-02-15T08:35:56;47.17;;;25.17;;
41817;SDS011;27493;51.730;5.294;2023-02-15T08:38:22;50.90;;;25.27;;
41817;SDS011;27493;51.730;5.294;2023-02-15T08:40:47;49.50;;;26.17;;
41817;SDS011;27493;51.730;5.294;2023-02-15T08:43:12;53.10;;;26.43;;
41817;SDS011;27493;51.730;5.294;2023-02-15T08:45:37;47.47;;;24.70;;
41817;SDS011;27493;51.730;5.294;2023-02-15T08:48:02;43.87;;;24.13;;
41817;SDS011;27493;51.730;5.294;2023-02-15T08:50:27;50.87;;;25.50;;
41817;SDS011;27493;51.730;5.294;2023-02-15T08:52:53;47.33;;;25.50;;
41817;SDS011;27493;51.730;5.294;2023-02-15T08:55:18;45.27;;;24.57;;
41817;SDS011;27493;51.730;5.294;2023-02-15T08:57:43;47.13;;;25.23;;
41817;SDS011;27493;51.730;5.294;2023-02-15T09:00:10;49.03;;;26.00;;
41817;SDS011;27493;51.730;5.294;2023-02-15T09:02:36;47.37;;;25.73;;
41817;SDS011;27493;51.730;5.294;2023-02-15T09:05:02;46.97;;;24.90;;
41817;SDS011;27493;51.730;5.294;2023-02-15T09:07:27;45.00;;;25.57;;
41817;SDS011;27493;51.730;5.294;2023-02-15T09:09:53;49.00;;;25.80;;
41817;SDS011;27493;51.730;5.294;2023-02-15T09:12:18;43.37;;;25.13;;
41817;SDS011;27493;51.730;5.294;2023-02-15T09:14:44;49.60;;;25.90;;
41817;SDS011;27493;51.730;5.294;2023-02-15T09:17:09;50.17;;;26.63;;
41817;SDS011;27493;51.730;5.294;2023-02-15T09:19:34;45.60;;;24.73;;
41817;SDS011;27493;51.730;5.294;2023-02-15T09:21:59;41.83;;;24.50;;
41817;SDS011;27493;51.730;5.294;2023-02-15T09:24:25;47.77;;;25.63;;
41817;SDS011;27493;51.730;5.294;2023-02-15T09:26:50;45.40;;;24.80;;
41817;SDS011;27493;51.730;5.294;2023-02-15T09:29:16;49.57;;;27.40;;
41817;SDS011;27493;51.730;5.294;2023-02-15T09:31:45;49.37;;;25.93;;
41817;SDS011;27493;51.730;5.294;2023-02-15T09:34:14;49.40;;;26.77;;
41817;SDS011;27493;51.730;5.294;2023-02-15T09:36:43;48.40;;;26.60;;
41817;SDS011;27493;51.730;5.294;2023-02-15T09:39:09;46.47;;;24.97;;
41817;SDS011;27493;51.730;5.294;2023-02-15T09:47:03;46.93;;;25.97;;
41817;SDS011;27493;51.730;5.294;2023-02-15T09:49:43;46.87;;;26.13;;
41817;SDS011;27493;51.730;5.294;2023-02-15T09:57:40;49.00;;;26.03;;
41817;SDS011;27493;51.730;5.294;2023-02-15T10:05:08;45.17;;;25.23;;
41817;SDS011;27493;51.730;5.294;2023-02-15T10:07:48;48.77;;;25.90;;
41817;SDS011;27493;51.730;5.294;2023-02-15T10:10:40;47.83;;;26.40;;
41817;SDS011;27493;51.730;5.294;2023-02-15T10:25:52;41.63;;;24.80;;
41817;SDS011;27493;51.730;5.294;2023-02-15T10:28:20;47.57;;;25.07;;
41817;SDS011;27493;51.730;5.294;2023-02-15T10:30:49;43.17;;;24.37;;
41817;SDS011;27493;51.730;5.294;2023-02-15T10:38:24;43.30;;;24.00;;
41817;SDS011;27493;51.730;5.294;2023-02-15T10:41:08;42.13;;;23.73;;
41817;SDS011;27493;51.730;5.294;2023-02-15T10:48:39;49.17;;;24.87;;
41817;SDS011;27493;51.730;5.294;2023-02-15T10:51:10;39.57;;;24.53;;
41817;SDS011;27493;51.730;5.294;2023-02-15T10:58:43;45.13;;;24.30;;
41817;SDS011;27493;51.730;5.294;2023-02-15T11:06:43;40.63;;;24.90;;
41817;SDS011;27493;51.730;5.294;2023-02-15T11:09:13;42.03;;;24.13;;
41817;SDS011;27493;51.730;5.294;2023-02-15T11:11:40;42.77;;;25.33;;
41817;SDS011;27493;51.730;5.294;2023-02-15T11:14:14;41.03;;;24.57;;
41817;SDS011;27493;51.730;5.294;2023-02-15T11:16:45;44.50;;;25.73;;
41817;SDS011;27493;51.730;5.294;2023-02-15T11:21:39;45.13;;;25.07;;
41817;SDS011;27493;51.730;5.294;2023-02-15T11:24:13;43.40;;;25.07;;
41817;SDS011;27493;51.730;5.294;2023-02-15T11:26:41;46.03;;;25.30;;
41817;SDS011;27493;51.730;5.294;2023-02-15T11:29:12;45.87;;;26.70;;
41817;SDS011;27493;51.730;5.294;2023-02-15T11:31:43;42.80;;;26.13;;
41817;SDS011;27493;51.730;5.294;2023-02-15T11:34:14;42.80;;;25.30;;
41817;SDS011;27493;51.730;5.294;2023-02-15T11:36:41;44.73;;;24.67;;
41817;SDS011;27493;51.730;5.294;2023-02-15T11:39:12;44.87;;;26.63;;
41817;SDS011;27493;51.730;5.294;2023-02-15T11:41:40;45.97;;;26.43;;
41817;SDS011;27493;51.730;5.294;2023-02-15T11:46:36;41.83;;;25.43;;
41817;SDS011;27493;51.730;5.294;2023-02-15T11:49:01;40.63;;;25.57;;
41817;SDS011;27493;51.730;5.294;2023-02-15T11:51:27;45.93;;;25.67;;
41817;SDS011;27493;51.730;5.294;2023-02-15T11:53:53;42.73;;;26.43;;
41817;SDS011;27493;51.730;5.294;2023-02-15T11:56:22;43.13;;;26.63;;
41817;SDS011;27493;51.730;5.294;2023-02-15T11:58:55;45.63;;;26.30;;
41817;SDS011;27493;51.730;5.294;2023-02-15T12:03:50;45.60;;;26.60;;
41817;SDS011;27493;51.730;5.294;2023-02-15T12:06:21;46.13;;;26.27;;
41817;SDS011;27493;51.730;5.294;2023-02-15T12:11:26;42.73;;;25.33;;
41817;SDS011;27493;51.730;5.294;2023-02-15T12:13:58;42.57;;;24.90;;
41817;SDS011;27493;51.730;5.294;2023-02-15T12:16:24;46.03;;;25.47;;
41817;SDS011;27493;51.730;5.294;2023-02-15T12:18:49;45.20;;;25.70;;
41817;SDS011;27493;51.730;5.294;2023-02-15T12:21:24;42.87;;;25.23;;
41817;SDS011;27493;51.730;5.294;2023-02-15T12:23:51;37.97;;;25.00;;
41817;SDS011;27493;51.730;5.294;2023-02-15T12:26:27;42.97;;;25.70;;
41817;SDS011;27493;51.730;5.294;2023-02-15T12:28:53;38.77;;;24.87;;
41817;SDS011;27493;51.730;5.294;2023-02-15T12:31:20;41.50;;;26.13;;
41817;SDS011;27493;51.730;5.294;2023-02-15T12:33:46;40.30;;;24.80;;
41817;SDS011;27493;51.730;5.294;2023-02-15T12:36:17;43.10;;;25.17;;
41817;SDS011;27493;51.730;5.294;2023-02-15T12:38:43;40.80;;;24.33;;
41817;SDS011;27493;51.730;5.294;2023-02-15T12:41:25;42.00;;;25.17;;
41817;SDS011;27493;51.730;5.294;2023-02-15T12:44:05;41.33;;;24.77;;
41817;SDS011;27493;51.730;5.294;2023-02-15T12:46:30;41.60;;;24.30;;
41817;SDS011;27493;51.730;5.294;2023-02-15T12:49:07;43.70;;;24.67;;
41817;SDS011;27493;51.730;5.294;2023-02-15T12:51:46;39.13;;;22.73;;
41817;SDS011;27493;51.730;5.294;2023-02-15T12:56:49;40.23;;;23.43;;
41817;SDS011;27493;51.730;5.294;2023-02-15T12:59:14;38.43;;;23.77;;
41817;SDS011;27493;51.730;5.294;2023-02-15T13:01:45;38.73;;;23.63;;
41817;SDS011;27493;51.730;5.294;2023-02-15T13:06:48;41.40;;;24.00;;
41817;SDS011;27493;51.730;5.294;2023-02-15T13:09:19;39.97;;;23.70;;
41817;SDS011;27493;51.730;5.294;2023-02-15T13:11:45;37.67;;;23.23;;
41817;SDS011;27493;51.730;5.294;2023-02-15T13:23:37;41.77;;;24.60;;
41817;SDS011;27493;51.730;5.294;2023-02-15T13:26:04;44.57;;;23.23;;
41817;SDS011;27493;51.730;5.294;2023-02-15T13:28:34;41.50;;;23.83;;
41817;SDS011;27493;51.730;5.294;2023-02-15T13:31:01;42.97;;;24.43;;
41817;SDS011;27493;51.730;5.294;2023-02-15T13:33:31;39.30;;;23.97;;
41817;SDS011;27493;51.730;5.294;2023-02-15T13:41:09;42.60;;;23.43;;
41817;SDS011;27493;51.730;5.294;2023-02-15T13:44:25;39.77;;;23.47;;
41817;SDS011;27493;51.730;5.294;2023-02-15T13:49:00;40.53;;;23.50;;
41817;SDS011;27493;51.730;5.294;2023-02-15T13:54:12;38.00;;;23.80;;
41817;SDS011;27493;51.730;5.294;2023-02-15T14:09:30;37.40;;;23.53;;
41817;SDS011;27493;51.730;5.294;2023-02-15T14:19:57;38.30;;;23.13;;
41817;SDS011;27493;51.730;5.294;2023-02-15T14:24:58;40.87;;;24.93;;
41817;SDS011;27493;51.730;5.294;2023-02-15T14:27:48;37.77;;;23.50;;
41817;SDS011;27493;51.730;5.294;2023-02-15T14:30:20;40.80;;;23.97;;
41817;SDS011;27493;51.730;5.294;2023-02-15T14:32:46;40.70;;;24.43;;
41817;SDS011;27493;51.730;5.294;2023-02-15T14:35:17;40.77;;;23.00;;
41817;SDS011;27493;51.730;5.294;2023-02-15T14:37:45;42.33;;;24.30;;
41817;SDS011;27493;51.730;5.294;2023-02-15T14:46:16;39.07;;;24.33;;
41817;SDS011;27493;51.730;5.294;2023-02-15T14:48:53;43.70;;;25.70;;
41817;SDS011;27493;51.730;5.294;2023-02-15T14:52:20;39.10;;;24.47;;
41817;SDS011;27493;51.730;5.294;2023-02-15T14:56:46;39.53;;;22.63;;
41817;SDS011;27493;51.730;5.294;2023-02-15T14:59:45;40.87;;;25.03;;
41817;SDS011;27493;51.730;5.294;2023-02-15T15:04:43;48.30;;;25.30;;
41817;SDS011;27493;51.730;5.294;2023-02-15T15:09:43;43.30;;;24.90;;
41817;SDS011;27493;51.730;5.294;2023-02-15T15:12:14;42.23;;;25.37;;
41817;SDS011;27493;51.730;5.294;2023-02-15T15:14:41;44.07;;;25.93;;
41817;SDS011;27493;51.730;5.294;2023-02-15T15:17:09;40.83;;;25.20;;
41817;SDS011;27493;51.730;5.294;2023-02-15T15:22:25;44.70;;;25.73;;
41817;SDS011;27493;51.730;5.294;2023-02-15T15:30:01;40.37;;;23.57;;
41817;SDS011;27493;51.730;5.294;2023-02-15T15:32:27;45.77;;;24.27;;
41817;SDS011;27493;51.730;5.294;2023-02-15T15:35:01;42.70;;;25.30;;
41817;SDS011;27493;51.730;5.294;2023-02-15T15:37:42;45.27;;;25.30;;
41817;SDS011;27493;51.730;5.294;2023-02-15T15:50:19;43.10;;;25.43;;
41817;SDS011;27493;51.730;5.294;2023-02-15T15:52:53;42.23;;;26.07;;
41817;SDS011;27493;51.730;5.294;2023-02-15T15:55:20;47.73;;;25.83;;
41817;SDS011;27493;51.730;5.294;2023-02-15T15:57:47;43.00;;;25.57;;
41817;SDS011;27493;51.730;5.294;2023-02-15T16:02:52;44.27;;;25.13;;
41817;SDS011;27493;51.730;5.294;2023-02-15T16:05:17;43.57;;;25.53;;
41817;SDS011;27493;51.730;5.294;2023-02-15T16:07:43;45.83;;;25.90;;
41817;SDS011;27493;51.730;5.294;2023-02-15T16:10:20;45.50;;;25.93;;
41817;SDS011;27493;51.730;5.294;2023-02-15T16:12:46;46.73;;;26.80;;
41817;SDS011;27493;51.730;5.294;2023-02-15T16:15:20;43.27;;;25.83;;
41817;SDS011;27493;51.730;5.294;2023-02-15T16:17:50;43.00;;;25.00;;
41817;SDS011;27493;51.730;5.294;2023-02-15T16:20:21;43.90;;;25.37;;
41817;SDS011;27493;51.730;5.294;2023-02-15T16:22:48;43.30;;;26.07;;
41817;SDS011;27493;51.730;5.294;2023-02-15T16:27:46;45.53;;;27.00;;
41817;SDS011;27493;51.730;5.294;2023-02-15T16:30:31;40.73;;;26.27;;
41817;SDS011;27493;51.730;5.294;2023-02-15T16:33:04;44.00;;;25.27;;
41817;SDS011;27493;51.730;5.294;2023-02-15T16:35:30;44.60;;;25.97;;
41817;SDS011;27493;51.730;5.294;2023-02-15T16:37:55;41.37;;;25.10;;
41817;SDS011;27493;51.730;5.294;2023-02-15T16:42:53;46.83;;;26.20;;
41817;SDS011;27493;51.730;5.294;2023-02-15T16:45:20;41.37;;;25.00;;
41817;SDS011;27493;51.730;5.294;2023-02-15T16:50:51;43.37;;;25.23;;
41817;SDS011;27493;51.730;5.294;2023-02-15T16:53:18;43.37;;;26.23;;
41817;SDS011;27493;51.730;5.294;2023-02-15T16:58:48;49.83;;;25.83;;
41817;SDS011;27493;51.730;5.294;2023-02-15T17:01:14;43.10;;;25.73;;
41817;SDS011;27493;51.730;5.294;2023-02-15T17:03:41;53.60;;;27.20;;
41817;SDS011;27493;51.730;5.294;2023-02-15T17:09:13;44.13;;;26.60;;
41817;SDS011;27493;51.730;5.294;2023-02-15T17:14:45;46.37;;;26.93;;
41817;SDS011;27493;51.730;5.294;2023-02-15T17:17:14;46.60;;;25.90;;
41817;SDS011;27493;51.730;5.294;2023-02-15T17:22:16;44.73;;;26.67;;
41817;SDS011;27493;51.730;5.294;2023-02-15T17:24:43;47.17;;;25.97;;
41817;SDS011;27493;51.730;5.294;2023-02-15T17:27:22;43.20;;;26.00;;
41817;SDS011;27493;51.730;5.294;2023-02-15T17:29:50;47.93;;;26.57;;
41817;SDS011;27493;51.730;5.294;2023-02-15T17:32:24;43.77;;;25.93;;
41817;SDS011;27493;51.730;5.294;2023-02-15T17:34:56;43.77;;;25.00;;
41817;SDS011;27493;51.730;5.294;2023-02-15T17:40:07;46.50;;;26.27;;
41817;SDS011;27493;51.730;5.294;2023-02-15T17:42:39;45.03;;;26.53;;